Observations for Trim Patrick St
| Time | AQI | Temp °C | Hum % | Pres Pa | CO μg/m³ | H₂S μg/m³ | NO μg/m³ | NO₂ μg/m³ | O₃ μg/m³ | SO₂ μg/m³ | PM1 μg/m³ | PM2.5 μg/m³ | PM10 μg/m³ |
|---|---|---|---|---|---|---|---|---|---|---|---|---|---|
| Friday 7 August 2026 | |||||||||||||
| 20:27 | 3 | 24.4 | 42 | 68,961 | 0 | 22.96 | 1.2 | 30.38 | 58.12 | 11.25 | 2 | 7.72 | 8.49 |
| 20:26 | 3 | 24.5 | 41 | 68,939 | 0 | 23.75 | 1.19 | 31.9 | 60.62 | 11.58 | 2 | 7.74 | 8.51 |
| 20:25 | 3 | 24.5 | 41 | 68,937 | 0 | 24.57 | 1.2 | 37.77 | 55.97 | 11.78 | 2.86 | 8.54 | 9.39 |
| 20:24 | 3 | 24.6 | 41 | 68,935 | 0 | 25.29 | 1.18 | 35.98 | 57.69 | 11.52 | 2.86 | 8.54 | 9.39 |
| 20:23 | 3 | 24.6 | 41 | 68,959 | 0 | 25.05 | 1.19 | 33.8 | 58.72 | 11.88 | 2.86 | 9.34 | 10.28 |
| 20:22 | 3 | 24.7 | 41 | 68,959 | 0 | 23.08 | 1.16 | 32.16 | 59.99 | 11.15 | 2 | 7.75 | 8.53 |
| 20:21 | 3 | 24.7 | 41 | 68,961 | 0 | 25.47 | 1.16 | 31.41 | 65.24 | 12.01 | 2.86 | 8.54 | 9.39 |
| 20:20 | 3 | 24.7 | 41 | 68,963 | 0 | 25.87 | 1.16 | 43.22 | 52.41 | 11.8 | 2.86 | 9.33 | 10.26 |
| 20:19 | 3 | 24.8 | 41 | 68,997 | 0 | 27.25 | 1.13 | 41.81 | 54.73 | 12.25 | 2.86 | 8.53 | 9.38 |
| 20:18 | 3 | 24.8 | 41 | 68,983 | 0 | 28.02 | 1.16 | 43.52 | 53.02 | 12.41 | 3.71 | 10.12 | 11.13 |
| 20:17 | 3 | 24.9 | 41 | 68,993 | 0 | 30.04 | 1.14 | 50.72 | 49.27 | 12.88 | 3.71 | 9.34 | 10.27 |
| 20:16 | 3 | 25 | 40 | 69,002 | 0 | 28.82 | 1.14 | 42.46 | 59.88 | 12.72 | 2.86 | 9.36 | 10.3 |
| 20:15 | 3 | 25 | 40 | 68,993 | 0 | 27.67 | 1.13 | 44.13 | 54.52 | 12.67 | 2 | 7.81 | 8.59 |
| 20:14 | 3 | 25.1 | 40 | 69,006 | 0 | 27.09 | 1.14 | 32.55 | 61.99 | 12.86 | 2.86 | 9.42 | 10.36 |
| 20:13 | 3 | 25.2 | 40 | 69,027 | 0 | 26.47 | 1.09 | 46.69 | 56.75 | 12.61 | 2.86 | 9.4 | 10.34 |
| 20:12 | 3 | 25.3 | 39 | 69,021 | 0 | 27.06 | 1.09 | 29.9 | 59.14 | 13.01 | 3.71 | 9.45 | 10.39 |
| 20:11 | 3 | 25.3 | 40 | 69,043 | 0 | 29.16 | 1.07 | 43.36 | 59.01 | 13.05 | 3.71 | 9.41 | 10.35 |
| 20:10 | 3 | 25.4 | 40 | 69,041 | 0 | 27.99 | 1.05 | 39.38 | 66.06 | 13.16 | 4.57 | 11 | 12.1 |
| 20:09 | 3 | 25.5 | 39 | 69,039 | 0 | 29.07 | 1.05 | 37.53 | 62.71 | 13.39 | 3.71 | 9.45 | 10.39 |
| 20:08 | 3 | 25.6 | 39 | 69,039 | 0 | 28.81 | 1.02 | 39.26 | 64.43 | 13.35 | 3.71 | 9.45 | 10.39 |